Time,TemperatureF,DewpointF,PressureIn,WindDirection,WindDirectionDegrees,WindSpeedMPH,WindSpeedGustMPH,Humidity,HourlyPrecipIn,Conditions,Clouds,dailyrainin,SoftwareType,DateUTC
2013-08-19 00:12:00,65.0,60.0,30.02,South,171,0.0,-999.0,84,-99.99,,,-99.99,,2013-08-19 04:12:00,
2013-08-19 00:23:00,65.0,60.0,30.02,South,171,0.0,-999.0,84,-99.99,,,-99.99,,2013-08-19 04:23:00,
2013-08-19 00:42:00,65.0,60.0,30.01,South,171,0.0,-999.0,85,-99.99,,,-99.99,,2013-08-19 04:42:00,
2013-08-19 00:53:00,65.0,60.0,30.02,South,171,0.0,-999.0,85,-99.99,,,-99.99,,2013-08-19 04:53:00,
2013-08-19 01:11:00,65.0,60.0,30.01,South,171,0.0,-999.0,85,-99.99,,,-99.99,,2013-08-19 05:11:00,
2013-08-19 01:22:00,64.0,60.0,30.01,South,171,0.0,-999.0,86,-99.99,,,-99.99,,2013-08-19 05:22:00,
2013-08-19 01:42:00,64.0,60.0,30.01,South,171,0.0,-999.0,87,-99.99,,,-99.99,,2013-08-19 05:42:00,
2013-08-19 01:52:00,64.0,60.0,30.01,South,171,0.0,-999.0,87,-99.99,,,-99.99,,2013-08-19 05:52:00,
2013-08-19 02:11:00,64.0,60.0,30.00,South,171,0.0,-999.0,88,-99.99,,,-99.99,,2013-08-19 06:11:00,
2013-08-19 02:21:00,64.0,60.0,30.00,South,171,0.0,-999.0,88,-99.99,,,-99.99,,2013-08-19 06:21:00,
2013-08-19 02:42:00,63.0,59.0,29.99,South,171,0.0,-999.0,88,-99.99,,,-99.99,,2013-08-19 06:42:00,
2013-08-19 02:52:00,63.0,59.0,29.99,South,171,0.0,-999.0,88,-99.99,,,-99.99,,2013-08-19 06:52:00,
2013-08-19 03:12:00,62.0,59.0,29.98,South,171,0.0,-999.0,89,-99.99,,,-99.99,,2013-08-19 07:12:00,
2013-08-19 03:21:00,62.0,59.0,29.98,South,171,0.0,-999.0,90,-99.99,,,-99.99,,2013-08-19 07:21:00,
2013-08-19 03:42:00,61.0,58.0,29.98,South,171,0.0,-999.0,90,-99.99,,,-99.99,,2013-08-19 07:42:00,
2013-08-19 03:52:00,61.0,58.0,29.98,South,171,0.0,-999.0,91,-99.99,,,-99.99,,2013-08-19 07:52:00,
2013-08-19 04:11:00,61.0,58.0,29.98,South,171,0.0,-999.0,91,-99.99,,,-99.99,,2013-08-19 08:11:00,
2013-08-19 04:21:00,61.0,58.0,29.98,South,171,0.0,-999.0,91,-99.99,,,-99.99,,2013-08-19 08:21:00,
2013-08-19 04:42:00,61.0,59.0,29.98,South,171,0.0,-999.0,92,-99.99,,,-99.99,,2013-08-19 08:42:00,
2013-08-19 04:52:00,61.0,59.0,29.98,South,171,0.0,-999.0,92,-99.99,,,-99.99,,2013-08-19 08:52:00,
2013-08-19 05:11:00,61.0,59.0,29.99,South,171,0.0,-999.0,92,-99.99,,,-99.99,,2013-08-19 09:11:00,
2013-08-19 05:22:00,61.0,59.0,29.99,South,171,0.0,-999.0,92,-99.99,,,-99.99,,2013-08-19 09:22:00,
2013-08-19 05:43:00,61.0,59.0,29.99,South,171,0.0,-999.0,92,-99.99,,,-99.99,,2013-08-19 09:43:00,
2013-08-19 05:53:00,61.0,59.0,29.99,South,171,0.0,-999.0,92,-99.99,,,-99.99,,2013-08-19 09:53:00,
2013-08-19 06:12:00,61.0,59.0,29.99,South,171,0.0,-999.0,92,-99.99,,,-99.99,,2013-08-19 10:12:00,
2013-08-19 06:23:00,62.0,60.0,29.99,South,171,0.0,-999.0,92,-99.99,,,-99.99,,2013-08-19 10:23:00,
2013-08-19 06:43:00,62.0,60.0,29.99,South,171,0.0,-999.0,92,-99.99,,,-99.99,,2013-08-19 10:43:00,
2013-08-19 06:52:00,62.0,60.0,30.00,South,171,0.0,-999.0,92,-99.99,,,-99.99,,2013-08-19 10:52:00,
2013-08-19 07:12:00,62.0,60.0,30.01,South,171,0.0,-999.0,92,-99.99,,,-99.99,,2013-08-19 11:12:00,
2013-08-19 07:22:00,62.0,60.0,30.01,South,171,0.0,-999.0,93,-99.99,,,-99.99,,2013-08-19 11:22:00,
2013-08-19 07:45:00,62.0,60.0,30.01,South,171,0.0,-999.0,93,-99.99,,,-99.99,,2013-08-19 11:45:00,
2013-08-19 07:52:00,62.0,60.0,30.00,SSW,203,0.0,-999.0,93,-99.99,,,-99.99,,2013-08-19 11:52:00,
2013-08-19 08:11:00,62.0,60.0,30.00,SSW,203,0.0,-999.0,93,-99.99,,,-99.99,,2013-08-19 12:11:00,
2013-08-19 08:21:00,63.0,61.0,30.00,North,359,0.0,-999.0,93,-99.99,,,-99.99,,2013-08-19 12:21:00,
2013-08-19 08:42:00,63.0,61.0,30.00,NE,34,0.0,-999.0,93,-99.99,,,-99.99,,2013-08-19 12:42:00,
2013-08-19 08:52:00,63.0,61.0,30.00,NE,34,0.0,-999.0,93,-99.99,,,-99.99,,2013-08-19 12:52:00,
2013-08-19 09:13:00,63.0,61.0,30.01,NE,34,0.0,-999.0,93,-99.99,,,-99.99,,2013-08-19 13:13:00,
2013-08-19 09:22:00,64.0,62.0,30.01,NE,34,0.0,-999.0,93,-99.99,,,-99.99,,2013-08-19 13:22:00,
2013-08-19 09:42:00,65.0,63.0,30.00,NE,34,0.0,-999.0,93,-99.99,,,-99.99,,2013-08-19 13:42:00,
2013-08-19 09:52:00,65.0,63.0,29.99,NE,34,0.0,-999.0,93,-99.99,,,-99.99,,2013-08-19 13:52:00,
2013-08-19 10:11:00,66.0,64.0,30.00,NE,34,0.0,-999.0,92,-99.99,,,-99.99,,2013-08-19 14:11:00,
2013-08-19 10:22:00,66.0,63.0,30.00,SE,144,0.0,-999.0,91,-99.99,,,-99.99,,2013-08-19 14:22:00,
2013-08-19 10:42:00,66.0,63.0,30.00,SW,222,0.0,-999.0,89,-99.99,,,-99.99,,2013-08-19 14:42:00,
2013-08-19 10:52:00,66.0,63.0,29.99,SW,222,0.0,-999.0,90,-99.99,,,-99.99,,2013-08-19 14:52:00,
2013-08-19 11:11:00,67.0,64.0,29.99,SW,222,0.0,-999.0,89,-99.99,,,-99.99,,2013-08-19 15:11:00,
2013-08-19 11:23:00,68.0,64.0,29.99,NNW,333,0.0,-999.0,87,-99.99,,,-99.99,,2013-08-19 15:23:00,
2013-08-19 11:44:00,68.0,63.0,29.99,NNW,333,0.0,-999.0,85,-99.99,,,-99.99,,2013-08-19 15:44:00,
2013-08-19 11:54:00,70.0,63.0,29.99,WSW,241,0.0,-999.0,79,-99.99,,,-99.99,,2013-08-19 15:54:00,
2013-08-19 12:13:00,71.0,63.0,29.98,WSW,246,0.0,-999.0,76,-99.99,,,-99.99,,2013-08-19 16:13:00,
2013-08-19 12:23:00,73.0,63.0,29.98,SSE,164,0.0,-999.0,71,-99.99,,,-99.99,,2013-08-19 16:23:00,
2013-08-19 12:47:00,73.0,63.0,29.98,WSW,239,0.0,-999.0,70,-99.99,,,-99.99,,2013-08-19 16:47:00,
2013-08-19 13:13:00,75.0,63.0,29.96,ESE,112,0.0,-999.0,67,-99.99,,,-99.99,,2013-08-19 17:13:00,
2013-08-19 13:30:00,77.0,-99.9,29.96,WSW,239,0.0,-999.0,61,-99.99,,,-99.99,,2013-08-19 17:30:00,
2013-08-19 13:49:00,75.0,62.0,29.96,WSW,248,0.0,-999.0,64,-99.99,,,-99.99,,2013-08-19 17:49:00,
2013-08-19 13:57:00,76.0,64.0,29.95,NNW,339,0.0,-999.0,67,-99.99,,,-99.99,,2013-08-19 17:57:00,
2013-08-19 14:19:00,75.0,63.0,29.96,SW,226,0.0,-999.0,66,-99.99,,,-99.99,,2013-08-19 18:19:00,
2013-08-19 14:28:00,75.0,63.0,29.96,NW,323,1.0,-999.0,66,-99.99,,,-99.99,,2013-08-19 18:28:00,
2013-08-19 14:50:00,-999.0,-99.9,29.96,NW,325,0.0,-999.0,66,-99.99,,,-99.99,,2013-08-19 18:50:00,
2013-08-19 15:00:00,-999.0,-99.9,29.95,NW,315,1.0,-999.0,59,-99.99,,,-99.99,,2013-08-19 19:00:00,
2013-08-19 15:16:00,78.0,62.0,29.95,West,281,4.0,-999.0,59,-99.99,,,-99.99,,2013-08-19 19:16:00,
2013-08-19 15:30:00,-999.0,-99.9,29.95,NW,313,2.0,-999.0,65,-99.99,,,-99.99,,2013-08-19 19:30:00,
2013-08-19 15:50:00,78.0,63.0,29.95,North,350,3.0,-999.0,60,-99.99,,,-99.99,,2013-08-19 19:50:00,
2013-08-19 15:59:00,78.0,64.0,29.95,NW,322,2.0,-999.0,63,-99.99,,,-99.99,,2013-08-19 19:59:00,
2013-08-19 16:20:00,77.0,63.0,29.95,NW,308,1.0,-999.0,63,-99.99,,,-99.99,,2013-08-19 20:20:00,
2013-08-19 16:30:00,77.0,-99.9,29.95,NNW,337,2.0,-999.0,64,-99.99,,,-99.99,,2013-08-19 20:30:00,
2013-08-19 16:50:00,77.0,62.0,29.95,NW,323,2.0,-999.0,60,-99.99,,,-99.99,,2013-08-19 20:50:00,
2013-08-19 17:00:00,-999.0,-99.9,29.95,NNW,333,2.0,-999.0,-999,-99.99,,,-99.99,,2013-08-19 21:00:00,
2013-08-19 17:16:00,77.0,62.0,29.94,WNW,295,2.0,-999.0,60,-99.99,,,-99.99,,2013-08-19 21:16:00,
2013-08-19 17:25:00,76.0,62.0,29.95,West,264,3.0,-999.0,62,-99.99,,,-99.99,,2013-08-19 21:25:00,
2013-08-19 17:46:00,76.0,62.0,29.94,WNW,294,2.0,-999.0,61,-99.99,,,-99.99,,2013-08-19 21:46:00,
2013-08-19 17:54:00,76.0,60.0,29.94,North,359,3.0,-999.0,57,-99.99,,,-99.99,,2013-08-19 21:54:00,
2013-08-19 18:25:00,76.0,60.0,29.95,NNW,344,2.0,-999.0,58,-99.99,,,-99.99,,2013-08-19 22:25:00,
2013-08-19 18:44:00,76.0,60.0,29.95,North,353,1.0,-999.0,58,-99.99,,,-99.99,,2013-08-19 22:44:00,
2013-08-19 18:54:00,74.0,59.0,29.95,NNW,332,3.0,-999.0,60,-99.99,,,-99.99,,2013-08-19 22:54:00,
2013-08-19 19:15:00,73.0,59.0,29.96,NW,323,1.0,-999.0,62,-99.99,,,-99.99,,2013-08-19 23:15:00,
2013-08-19 19:25:00,73.0,61.0,29.95,NNW,329,1.0,-999.0,66,-99.99,,,-99.99,,2013-08-19 23:25:00,
2013-08-19 19:48:00,72.0,60.0,29.96,NNW,330,1.0,-999.0,66,-99.99,,,-99.99,,2013-08-19 23:48:00,
2013-08-19 19:55:00,71.0,60.0,29.96,NW,306,1.0,-999.0,68,-99.99,,,-99.99,,2013-08-19 23:55:00,
2013-08-19 20:11:00,70.0,60.0,29.96,NW,306,0.0,-999.0,71,-99.99,,,-99.99,,2013-08-20 00:11:00,
2013-08-19 20:24:00,69.0,60.0,29.96,SW,215,0.0,-999.0,74,-99.99,,,-99.99,,2013-08-20 00:24:00,
2013-08-19 20:42:00,68.0,61.0,29.96,SW,215,0.0,-999.0,77,-99.99,,,-99.99,,2013-08-20 00:42:00,
2013-08-19 20:52:00,66.0,59.0,29.96,SW,215,0.0,-999.0,78,-99.99,,,-99.99,,2013-08-20 00:52:00,
2013-08-19 21:11:00,65.0,59.0,29.96,SW,215,0.0,-999.0,81,-99.99,,,-99.99,,2013-08-20 01:11:00,
2013-08-19 21:22:00,64.0,59.0,29.96,SW,215,0.0,-999.0,83,-99.99,,,-99.99,,2013-08-20 01:22:00,
2013-08-19 21:42:00,63.0,58.0,29.97,SW,215,0.0,-999.0,84,-99.99,,,-99.99,,2013-08-20 01:42:00,
2013-08-19 21:52:00,62.0,57.0,29.97,SW,215,0.0,-999.0,85,-99.99,,,-99.99,,2013-08-20 01:52:00,
2013-08-19 22:11:00,62.0,58.0,29.97,SW,215,0.0,-999.0,86,-99.99,,,-99.99,,2013-08-20 02:11:00,
2013-08-19 22:21:00,61.0,57.0,29.97,SW,215,0.0,-999.0,87,-99.99,,,-99.99,,2013-08-20 02:21:00,
2013-08-19 22:42:00,60.0,56.0,29.98,SW,215,0.0,-999.0,88,-99.99,,,-99.99,,2013-08-20 02:42:00,
2013-08-19 22:52:00,60.0,57.0,29.98,SW,215,0.0,-999.0,89,-99.99,,,-99.99,,2013-08-20 02:52:00,
2013-08-19 23:11:00,59.0,56.0,29.98,SW,215,0.0,-999.0,89,-99.99,,,-99.99,,2013-08-20 03:11:00,
2013-08-19 23:22:00,59.0,56.0,29.98,SW,215,0.0,-999.0,89,-99.99,,,-99.99,,2013-08-20 03:22:00,
2013-08-19 23:43:00,59.0,56.0,29.98,SW,215,0.0,-999.0,90,-99.99,,,-99.99,,2013-08-20 03:43:00,
2013-08-19 23:54:00,58.0,55.0,29.98,SW,215,0.0,-999.0,91,-99.99,,,-99.99,,2013-08-20 03:54:00,